createdAt,value
2019-04-25T00:01:47.389Z,100684.72
2019-04-25T00:04:15.532Z,100685.25
2019-04-25T00:06:42.892Z,100686.77
2019-04-25T00:09:12.755Z,100688.41
2019-04-25T00:11:39.556Z,100680.52
2019-04-25T00:14:06.626Z,100686.87
2019-04-25T00:16:35.144Z,100684.61
2019-04-25T00:19:02.020Z,100685.63
2019-04-25T00:21:32.058Z,100678.34
2019-04-25T00:24:02.633Z,100680.63
2019-04-25T00:26:31.687Z,100681.88
2019-04-25T00:28:58.355Z,100675.33
2019-04-25T00:31:26.111Z,100672.48
2019-04-25T00:33:53.941Z,100673.33
2019-04-25T00:36:21.830Z,100670.28
2019-04-25T00:38:49.266Z,100669.53
2019-04-25T00:41:17.148Z,100671.70
2019-04-25T00:43:44.098Z,100669.64
2019-04-25T00:46:11.436Z,100673.50
2019-04-25T00:48:38.290Z,100672.17
2019-04-25T00:51:04.949Z,100670.66
2019-04-25T00:53:32.406Z,100667.45
2019-04-25T00:56:01.452Z,100673.58
2019-04-25T00:58:31.510Z,100664.96
2019-04-25T01:01:01.886Z,100666.38
2019-04-25T01:03:31.703Z,100662.05
2019-04-25T01:05:59.706Z,100672.23
2019-04-25T01:08:26.711Z,100666.06
2019-04-25T01:10:54.239Z,100674.62
2019-04-25T01:13:22.321Z,100666.55
2019-04-25T01:15:49.399Z,100661.06
2019-04-25T01:18:16.040Z,100671.28
2019-04-25T01:20:43.454Z,100671.84
2019-04-25T01:23:11.595Z,100673.60
2019-04-25T01:25:41.020Z,100658.51
2019-04-25T01:28:06.935Z,100667.66
2019-04-25T01:30:34.006Z,100662.66
2019-04-25T01:33:01.100Z,100673.17
2019-04-25T01:35:29.858Z,100668.08
2019-04-25T01:37:58.744Z,100663.40
2019-04-25T01:40:27.319Z,100668.88
2019-04-25T01:42:55.932Z,100664.41
2019-04-25T01:45:24.516Z,100655.83
2019-04-25T01:47:52.573Z,100660.17
2019-04-25T01:50:20.183Z,100661.52
2019-04-25T01:52:46.770Z,100656.20
2019-04-25T01:55:13.841Z,100654.37
2019-04-25T01:57:40.645Z,100658.27
2019-04-25T02:00:10.624Z,100656.53
2019-04-25T02:02:37.518Z,100656.86
2019-04-25T02:05:06.347Z,100650.81
2019-04-25T02:07:33.425Z,100653.58
2019-04-25T02:10:00.486Z,100654.62
2019-04-25T02:12:29.145Z,100654.48
2019-04-25T02:14:56.853Z,100655.80
2019-04-25T02:17:24.230Z,100654.09
2019-04-25T02:19:52.151Z,100656.52
2019-04-25T02:22:19.315Z,100650.77
2019-04-25T02:24:45.980Z,100652.19
2019-04-25T02:27:13.523Z,100656.22
2019-04-25T02:29:40.570Z,100652.73
2019-04-25T02:32:09.134Z,100652.60
2019-04-25T02:34:36.081Z,100649.56
2019-04-25T02:37:08.667Z,100647.37
2019-04-25T02:39:36.762Z,100644.06
2019-04-25T02:42:04.009Z,100649.19
2019-04-25T02:44:34.337Z,100648.34
2019-04-25T02:47:02.194Z,100650.37
2019-04-25T02:49:38.686Z,100645.65
2019-04-25T02:52:02.611Z,100652.67
2019-04-25T02:54:30.109Z,100651.17
2019-04-25T02:56:57.495Z,100648.83
2019-04-25T02:59:25.550Z,100648.70
2019-04-25T03:01:54.119Z,100650.24
2019-04-25T03:04:20.736Z,100640.62
2019-04-25T03:06:47.665Z,100633.25
2019-04-25T03:09:15.379Z,100642.12
2019-04-25T03:11:45.098Z,100635.72
2019-04-25T03:14:11.314Z,100641.89
2019-04-25T03:16:38.289Z,100641.86
2019-04-25T03:19:08.255Z,100643.80
2019-04-25T03:21:37.650Z,100631.22
2019-04-25T03:24:09.066Z,100633.78
2019-04-25T03:26:40.347Z,100640.27
2019-04-25T03:29:04.661Z,100639.88
2019-04-25T03:31:31.452Z,100639.88
2019-04-25T03:33:58.230Z,100643.23
2019-04-25T03:36:24.907Z,100649.09
2019-04-25T03:38:51.754Z,100643.63
2019-04-25T03:41:18.433Z,100642.83
2019-04-25T03:43:45.128Z,100639.05
2019-04-25T03:46:14.243Z,100645.88
2019-04-25T03:48:41.418Z,100646.85
2019-04-25T03:51:08.342Z,100642.03
2019-04-25T03:53:35.083Z,100641.77
2019-04-25T03:56:02.821Z,100642.08
2019-04-25T03:58:30.257Z,100644.55
2019-04-25T04:00:58.554Z,100644.19
2019-04-25T04:03:25.160Z,100645.34
2019-04-25T04:05:51.835Z,100643.92
2019-04-25T04:08:18.460Z,100633.59
2019-04-25T04:10:48.260Z,100642.70
2019-04-25T04:13:15.853Z,100644.77
2019-04-25T04:15:43.366Z,100644.42
2019-04-25T04:18:14.341Z,100643.75
2019-04-25T04:20:43.569Z,100642.48
2019-04-25T04:23:13.482Z,100633.77
2019-04-25T04:25:41.330Z,100642.33
2019-04-25T04:28:07.975Z,100641.66
2019-04-25T04:30:34.774Z,100637.76
2019-04-25T04:33:03.635Z,100638.81
2019-04-25T04:35:30.493Z,100642.40
2019-04-25T04:37:57.262Z,100633.36
2019-04-25T04:40:24.374Z,100644.41
2019-04-25T04:42:51.294Z,100634.64
2019-04-25T04:45:18.319Z,100645.26
2019-04-25T04:47:45.407Z,100643.66
2019-04-25T04:50:14.191Z,100642.74
2019-04-25T04:52:40.979Z,100644.37
2019-04-25T04:55:10.011Z,100644.25
2019-04-25T04:57:37.794Z,100636.60
2019-04-25T05:00:06.741Z,100627.34
2019-04-25T05:02:35.238Z,100638.27
2019-04-25T05:05:04.110Z,100634.56
2019-04-25T05:07:34.277Z,100640.49
2019-04-25T05:10:00.907Z,100635.91
2019-04-25T05:12:27.474Z,100641.73
2019-04-25T05:14:54.052Z,100642.29
2019-04-25T05:17:20.604Z,100637.28
2019-04-25T05:19:47.193Z,100640.33
2019-04-25T05:22:14.813Z,100638.33
2019-04-25T05:24:43.841Z,100647.27
2019-04-25T05:27:10.743Z,100637.48
2019-04-25T05:29:37.348Z,100641.36
2019-04-25T05:32:04.303Z,100641.01
2019-04-25T05:34:31.300Z,100640.81
2019-04-25T05:36:57.946Z,100633.23
2019-04-25T05:39:25.149Z,100634.09
2019-04-25T05:41:54.007Z,100623.75
2019-04-25T05:44:21.129Z,100624.59
2019-04-25T05:46:47.723Z,100622.14
2019-04-25T05:49:15.513Z,100628.38
2019-04-25T05:51:43.737Z,100634.56
2019-04-25T05:54:10.580Z,100642.27
2019-04-25T05:56:37.283Z,100639.95
2019-04-25T05:59:05.496Z,100638.42
2019-04-25T06:01:34.306Z,100635.58
2019-04-25T06:04:01.443Z,100633.48
2019-04-25T06:06:28.270Z,100635.17
2019-04-25T06:08:56.859Z,100634.64
2019-04-25T06:11:26.137Z,100635.34
2019-04-25T06:13:54.773Z,100637.59
2019-04-25T06:16:25.598Z,100634.32
2019-04-25T06:18:54.943Z,100633.59
2019-04-25T06:21:23.269Z,100636.80
2019-04-25T06:23:52.328Z,100636.66
2019-04-25T06:26:33.117Z,100635.55
2019-04-25T06:28:53.731Z,100640.92
2019-04-25T06:31:16.557Z,100631.05
2019-04-25T06:33:43.460Z,100638.11
2019-04-25T06:36:10.274Z,100630.34
2019-04-25T06:38:37.300Z,100635.48
2019-04-25T06:41:03.959Z,100629.57
2019-04-25T06:43:30.627Z,100621.72
2019-04-25T06:45:59.101Z,100627.18
2019-04-25T06:48:27.543Z,100615.31
2019-04-25T06:50:54.330Z,100615.66
2019-04-25T06:53:21.782Z,100620.31
2019-04-25T06:55:49.451Z,100621.17
2019-04-25T06:58:16.144Z,100616.94
2019-04-25T07:00:57.616Z,100623.73
2019-04-25T07:03:13.945Z,100616.43
2019-04-25T07:05:41.378Z,100606.16
2019-04-25T07:08:08.065Z,100607.37
2019-04-25T07:10:35.010Z,100613.84
2019-04-25T07:13:01.806Z,100611.69
2019-04-25T07:15:28.496Z,100617.56
2019-04-25T07:17:55.363Z,100616.23
2019-04-25T07:20:24.879Z,100620.02
2019-04-25T07:22:51.735Z,100628.05
2019-04-25T07:25:21.963Z,100616.59
2019-04-25T07:27:50.759Z,100617.87
2019-04-25T07:30:27.227Z,100616.36
2019-04-25T07:32:53.973Z,100620.24
2019-04-25T07:35:20.797Z,100616.25
2019-04-25T07:37:47.649Z,100614.29
2019-04-25T07:40:15.518Z,100607.33
2019-04-25T07:42:43.828Z,100611.98
2019-04-25T07:45:14.193Z,100626.67
2019-04-25T07:47:41.044Z,100618.91
2019-04-25T07:50:09.117Z,100620.66
2019-04-25T07:52:37.706Z,100620.99
2019-04-25T07:55:05.703Z,100623.33
2019-04-25T07:57:33.532Z,100622.80
2019-04-25T08:00:01.212Z,100616.45
2019-04-25T08:02:28.249Z,100608.72
2019-04-25T08:04:55.905Z,100605.84
2019-04-25T08:07:24.055Z,100614.17
2019-04-25T08:09:51.235Z,100606.67
2019-04-25T08:12:18.130Z,100610.37
2019-04-25T08:14:46.591Z,100609.44
2019-04-25T08:17:15.476Z,100616.30
2019-04-25T08:19:44.215Z,100613.58
2019-04-25T08:22:13.643Z,100614.69
2019-04-25T08:24:41.305Z,100606.54
2019-04-25T08:27:08.127Z,100602.38
2019-04-25T08:29:37.995Z,100605.97
2019-04-25T08:32:04.599Z,100600.84
2019-04-25T08:34:32.432Z,100599.56
2019-04-25T08:36:59.960Z,100600.28
2019-04-25T08:39:27.667Z,100591.27
2019-04-25T08:41:54.556Z,100589.84
2019-04-25T08:44:21.513Z,100597.78
2019-04-25T08:46:48.895Z,100594.40
2019-04-25T08:49:17.491Z,100587.51
2019-04-25T08:51:45.050Z,100583.51
2019-04-25T08:54:13.773Z,100584.67
2019-04-25T08:56:40.842Z,100583.52
2019-04-25T08:59:09.967Z,100581.79
2019-04-25T09:01:40.607Z,100580.63
2019-04-25T09:04:09.221Z,100573.41
2019-04-25T09:06:37.548Z,100576.17
2019-04-25T09:09:07.225Z,100569.95
2019-04-25T09:11:36.663Z,100575.65
2019-04-25T09:14:03.722Z,100570.28
2019-04-25T09:16:30.754Z,100573.77
2019-04-25T09:18:57.377Z,100567.05
2019-04-25T09:21:24.087Z,100563.77
2019-04-25T09:23:50.930Z,100563.45
2019-04-25T09:26:17.753Z,100560.62
2019-04-25T09:28:46.314Z,100563.27
2019-04-25T09:31:14.117Z,100563.81
2019-04-25T09:33:41.230Z,100556.86
2019-04-25T09:36:08.243Z,100551.64
2019-04-25T09:38:35.744Z,100553.45
2019-04-25T09:41:03.954Z,100550.77
2019-04-25T09:43:30.923Z,100543.38
2019-04-25T09:45:59.569Z,100553.73
2019-04-25T09:48:28.079Z,100549.75
2019-04-25T09:50:56.634Z,100542.19
2019-04-25T09:53:23.905Z,100548.69
2019-04-25T09:55:51.984Z,100546.89
2019-04-25T09:58:20.480Z,100546.81
2019-04-25T10:00:49.193Z,100547.45
2019-04-25T10:03:15.845Z,100546.29
2019-04-25T10:05:42.798Z,100536.52
2019-04-25T10:08:09.551Z,100538.58
2019-04-25T10:10:36.611Z,100539.30
2019-04-25T10:13:06.272Z,100536.45
2019-04-25T10:15:39.066Z,100541.56
2019-04-25T10:18:06.118Z,100543.89
2019-04-25T10:20:33.441Z,100547.17
2019-04-25T10:23:00.563Z,100545.52
2019-04-25T10:25:27.238Z,100542.25
2019-04-25T10:27:54.044Z,100544.37
2019-04-25T10:30:23.744Z,100539.97
2019-04-25T10:32:49.562Z,100531.75
2019-04-25T10:35:16.253Z,100531.54
2019-04-25T10:37:44.828Z,100520.94
2019-04-25T10:40:14.267Z,100517.53
2019-04-25T10:42:41.222Z,100516.97
2019-04-25T10:45:20.471Z,100517.59
2019-04-25T10:47:37.913Z,100516.12
2019-04-25T10:50:06.045Z,100504.77
2019-04-25T10:52:33.749Z,100517.59
2019-04-25T10:55:00.517Z,100517.91
2019-04-25T10:57:28.496Z,100527.49
2019-04-25T11:00:05.911Z,100525.80
2019-04-25T11:02:24.390Z,100515.98
2019-04-25T11:04:54.538Z,100512.07
2019-04-25T11:07:23.382Z,100521.55
2019-04-25T11:09:50.140Z,100517.01
2019-04-25T11:12:17.894Z,100518.67
2019-04-25T11:14:44.928Z,100519.38
2019-04-25T11:17:13.204Z,100516.29
2019-04-25T11:19:41.034Z,100512.78
2019-04-25T11:22:08.343Z,100511.45
2019-04-25T11:24:36.786Z,100517.47
2019-04-25T11:27:04.298Z,100498.81
2019-04-25T11:29:31.348Z,100507.37
2019-04-25T11:31:58.572Z,100511.46
2019-04-25T11:34:25.971Z,100506.53
2019-04-25T11:36:52.632Z,100506.39
2019-04-25T11:39:21.333Z,100510.66
2019-04-25T11:41:49.463Z,100505.50
2019-04-25T11:44:16.845Z,100504.64
2019-04-25T11:46:45.324Z,100489.98
2019-04-25T11:49:15.118Z,100492.74
2019-04-25T11:51:42.744Z,100495.73
2019-04-25T11:54:10.746Z,100499.09
2019-04-25T11:56:37.429Z,100489.58
2019-04-25T11:59:04.613Z,100475.88
2019-04-25T12:01:31.600Z,100473.72
2019-04-25T12:03:58.535Z,100482.12
2019-04-25T12:06:25.317Z,100493.80
2019-04-25T12:08:53.853Z,100478.30
2019-04-25T12:11:20.585Z,100480.94
2019-04-25T12:13:48.103Z,100475.41
2019-04-25T12:16:17.183Z,100474.68
2019-04-25T12:18:47.690Z,100473.86
2019-04-25T12:21:13.587Z,100473.15
2019-04-25T12:23:40.518Z,100470.19
2019-04-25T12:26:07.317Z,100466.33
2019-04-25T12:28:34.177Z,100468.32
2019-04-25T12:31:00.966Z,100471.88
2019-04-25T12:33:27.622Z,100473.31
2019-04-25T12:35:55.328Z,100478.46
2019-04-25T12:38:24.478Z,100472.07
2019-04-25T12:40:52.634Z,100475.32
2019-04-25T12:43:23.905Z,100466.05
2019-04-25T12:45:52.964Z,100457.53
2019-04-25T12:48:19.649Z,100469.52
2019-04-25T12:50:47.908Z,100455.87
2019-04-25T12:53:15.004Z,100456.66
2019-04-25T12:55:41.857Z,100455.70
2019-04-25T12:58:08.517Z,100448.80
2019-04-25T13:00:47.278Z,100456.56
2019-04-25T13:03:06.845Z,100460.30
2019-04-25T13:05:34.167Z,100464.67
2019-04-25T13:08:01.154Z,100448.96
2019-04-25T13:10:27.927Z,100452.59
2019-04-25T13:12:55.484Z,100446.19
2019-04-25T13:15:23.475Z,100444.19
2019-04-25T13:17:51.146Z,100435.95
2019-04-25T13:20:18.187Z,100437.31
2019-04-25T13:22:44.743Z,100436.68
2019-04-25T13:25:14.813Z,100435.98
2019-04-25T13:27:44.575Z,100435.53
2019-04-25T13:30:14.018Z,100431.62
2019-04-25T13:32:42.786Z,100427.03
2019-04-25T13:35:13.518Z,100423.38
2019-04-25T13:37:40.227Z,100419.98
2019-04-25T13:40:07.130Z,100429.27
2019-04-25T13:42:33.715Z,100426.52
2019-04-25T13:45:00.627Z,100433.14
2019-04-25T13:47:29.176Z,100431.28
2019-04-25T13:49:56.125Z,100435.49
2019-04-25T13:52:23.858Z,100431.10
2019-04-25T13:54:51.243Z,100421.77
2019-04-25T13:57:17.933Z,100425.53
2019-04-25T13:59:45.859Z,100426.50
2019-04-25T14:02:14.130Z,100427.69
2019-04-25T14:04:40.914Z,100425.22
2019-04-25T14:07:07.782Z,100429.05
2019-04-25T14:09:34.912Z,100425.22
2019-04-25T14:12:01.855Z,100424.88
2019-04-25T14:14:28.544Z,100416.52
2019-04-25T14:16:57.227Z,100423.75
2019-04-25T14:19:25.773Z,100417.14
2019-04-25T14:21:54.386Z,100414.91
2019-04-25T14:24:22.915Z,100423.47
2019-04-25T14:26:50.216Z,100411.92
2019-04-25T14:29:17.104Z,100419.26
2019-04-25T14:31:47.958Z,100418.19
2019-04-25T14:34:13.278Z,100428.59
2019-04-25T14:36:40.064Z,100420.48
2019-04-25T14:39:07.081Z,100418.41
2019-04-25T14:41:35.579Z,100416.91
2019-04-25T14:44:02.253Z,100416.78
2019-04-25T14:46:29.851Z,100416.42
2019-04-25T14:48:56.647Z,100416.26
2019-04-25T14:51:24.139Z,100419.28
2019-04-25T14:53:52.359Z,100417.55
2019-04-25T14:56:21.655Z,100414.38
2019-04-25T14:58:49.179Z,100417.10
2019-04-25T15:01:17.958Z,100405.45
2019-04-25T15:03:44.879Z,100415.29
2019-04-25T15:06:11.976Z,100409.20
2019-04-25T15:08:38.833Z,100404.97
2019-04-25T15:11:05.887Z,100402.72
2019-04-25T15:13:32.658Z,100403.11
2019-04-25T15:15:59.520Z,100394.25
2019-04-25T15:18:26.727Z,100400.21
2019-04-25T15:20:53.430Z,100397.08
2019-04-25T15:23:24.139Z,100396.45
2019-04-25T15:25:51.691Z,100395.28
2019-04-25T15:28:18.622Z,100397.63
2019-04-25T15:30:45.968Z,100400.79
2019-04-25T15:33:12.809Z,100402.52
2019-04-25T15:35:41.524Z,100400.16
2019-04-25T15:38:10.171Z,100394.81
2019-04-25T15:40:41.063Z,100402.26
2019-04-25T15:43:09.966Z,100401.96
2019-04-25T15:45:41.337Z,100397.66
2019-04-25T15:48:08.133Z,100399.58
2019-04-25T15:50:35.023Z,100400.11
2019-04-25T15:53:01.787Z,100398.62
2019-04-25T15:55:28.990Z,100401.57
2019-04-25T15:57:56.101Z,100398.34
2019-04-25T16:00:25.062Z,100397.50
2019-04-25T16:02:51.841Z,100398.41
2019-04-25T16:05:18.481Z,100395.70
2019-04-25T16:07:45.394Z,100394.01
2019-04-25T16:10:12.737Z,100397.55
2019-04-25T16:12:42.721Z,100395.53
2019-04-25T16:15:09.725Z,100395.48
2019-04-25T16:17:37.190Z,100397.01
2019-04-25T16:20:05.652Z,100401.91
2019-04-25T16:22:32.493Z,100400.88
2019-04-25T16:24:59.239Z,100391.63
2019-04-25T16:27:25.971Z,100393.19
2019-04-25T16:29:52.648Z,100384.98
2019-04-25T16:32:22.552Z,100383.95
2019-04-25T16:34:49.282Z,100377.84
2019-04-25T16:37:16.184Z,100375.84
2019-04-25T16:39:43.174Z,100381.56
2019-04-25T16:42:10.062Z,100388.41
2019-04-25T16:44:36.699Z,100382.84
2019-04-25T16:47:03.791Z,100383.19
2019-04-25T16:49:30.903Z,100383.36
2019-04-25T16:51:57.641Z,100389.31
2019-04-25T16:54:24.284Z,100385.26
2019-04-25T16:56:51.250Z,100388.69
2019-04-25T16:59:18.075Z,100389.47
2019-04-25T17:01:45.031Z,100389.77
2019-04-25T17:04:12.107Z,100392.19
2019-04-25T17:06:38.995Z,100386.80
2019-04-25T17:09:06.221Z,100388.30
2019-04-25T17:11:35.890Z,100391.43
2019-04-25T17:14:05.112Z,100389.89
2019-04-25T17:16:32.562Z,100396.52
2019-04-25T17:19:01.377Z,100391.97
2019-04-25T17:21:28.088Z,100392.04
2019-04-25T17:23:54.989Z,100398.49
2019-04-25T17:26:22.066Z,100405.00
2019-04-25T17:28:50.884Z,100408.22
2019-04-25T17:31:19.931Z,100403.37
2019-04-25T17:33:48.624Z,100408.27
2019-04-25T17:36:17.438Z,100404.26
2019-04-25T17:38:46.426Z,100402.86
2019-04-25T17:41:13.014Z,100409.09
2019-04-25T17:43:39.804Z,100407.19
2019-04-25T17:46:10.878Z,100407.39
2019-04-25T17:48:36.921Z,100411.48
2019-04-25T17:51:06.073Z,100414.39
2019-04-25T17:53:33.078Z,100417.52
2019-04-25T17:56:00.072Z,100415.73
2019-04-25T17:58:29.230Z,100416.17
2019-04-25T18:00:56.218Z,100416.03
2019-04-25T18:03:23.481Z,100423.69
2019-04-25T18:05:51.667Z,100421.62
2019-04-25T18:08:18.418Z,100427.42
2019-04-25T18:10:45.043Z,100419.81
2019-04-25T18:13:11.730Z,100425.39
2019-04-25T18:15:40.290Z,100428.06
2019-04-25T18:18:08.926Z,100431.36
2019-04-25T18:20:38.848Z,100428.40
2019-04-25T18:23:07.814Z,100435.23
2019-04-25T18:25:36.938Z,100431.09
2019-04-25T18:28:06.148Z,100429.91
2019-04-25T18:30:32.950Z,100434.44
2019-04-25T18:33:10.029Z,100434.25
2019-04-25T18:35:31.962Z,100429.75
2019-04-25T18:38:00.654Z,100430.50
2019-04-25T18:40:29.216Z,100431.88
2019-04-25T18:42:57.820Z,100437.42
2019-04-25T18:45:26.461Z,100435.58
2019-04-25T18:47:53.241Z,100432.67
2019-04-25T18:50:21.941Z,100432.57
2019-04-25T18:52:50.628Z,100431.93
2019-04-25T18:55:19.230Z,100435.25
2019-04-25T18:57:47.809Z,100435.30
2019-04-25T19:00:16.705Z,100431.73
2019-04-25T19:02:45.998Z,100436.39
2019-04-25T19:05:14.827Z,100437.86
2019-04-25T19:07:41.517Z,100437.55
2019-04-25T19:10:10.164Z,100440.06
2019-04-25T19:12:36.745Z,100436.05
2019-04-25T19:15:05.070Z,100440.64
2019-04-25T19:17:31.754Z,100441.63
2019-04-25T19:19:58.422Z,100436.66
2019-04-25T19:22:25.005Z,100435.95
2019-04-25T19:24:52.192Z,100431.55
2019-04-25T19:27:23.917Z,100435.22
2019-04-25T19:29:47.435Z,100433.17
2019-04-25T19:32:14.257Z,100430.51
2019-04-25T19:34:41.270Z,100434.05
2019-04-25T19:37:08.742Z,100438.30
2019-04-25T19:39:37.457Z,100437.73
2019-04-25T19:42:06.361Z,100443.26
2019-04-25T19:44:33.028Z,100434.48
2019-04-25T19:46:59.575Z,100444.47
2019-04-25T19:49:26.179Z,100440.22
2019-04-25T19:51:52.910Z,100436.92
2019-04-25T19:54:19.886Z,100434.89
2019-04-25T19:56:49.612Z,100440.49
2019-04-25T19:59:16.516Z,100434.32
2019-04-25T20:01:44.058Z,100436.61
2019-04-25T20:04:12.842Z,100434.19
2019-04-25T20:06:42.402Z,100437.33
2019-04-25T20:09:12.961Z,100428.86
2019-04-25T20:11:44.214Z,100432.73
2019-04-25T20:14:11.383Z,100436.25
2019-04-25T20:16:40.703Z,100439.50
2019-04-25T20:19:09.458Z,100425.78
2019-04-25T20:21:36.669Z,100435.38
2019-04-25T20:24:03.890Z,100428.57
2019-04-25T20:26:30.971Z,100435.61
2019-04-25T20:28:57.552Z,100432.56
2019-04-25T20:31:24.326Z,100428.80
2019-04-25T20:34:03.278Z,100428.94
2019-04-25T20:36:20.241Z,100429.50
2019-04-25T20:38:47.240Z,100426.70
2019-04-25T20:41:14.263Z,100428.97
2019-04-25T20:43:41.465Z,100424.12
2019-04-25T20:46:08.103Z,100428.55
2019-04-25T20:48:34.698Z,100426.55
2019-04-25T20:51:01.387Z,100419.03
2019-04-25T20:53:27.984Z,100420.09
2019-04-25T20:55:54.994Z,100425.50
2019-04-25T20:58:22.099Z,100425.39
2019-04-25T21:00:51.609Z,100426.17
2019-04-25T21:03:18.585Z,100423.63
2019-04-25T21:05:46.999Z,100419.91
2019-04-25T21:08:13.562Z,100418.72
2019-04-25T21:10:40.367Z,100422.82
2019-04-25T21:13:08.979Z,100425.43
2019-04-25T21:15:37.768Z,100423.81
2019-04-25T21:18:06.379Z,100427.35
2019-04-25T21:20:32.930Z,100422.47
2019-04-25T21:22:59.630Z,100426.40
2019-04-25T21:25:26.366Z,100417.72
2019-04-25T21:27:53.036Z,100422.90
2019-04-25T21:30:19.723Z,100424.88
2019-04-25T21:32:48.314Z,100420.65
2019-04-25T21:35:15.172Z,100424.84
2019-04-25T21:37:43.664Z,100426.74
2019-04-25T21:40:13.026Z,100425.48
2019-04-25T21:42:41.722Z,100422.83
2019-04-25T21:45:09.532Z,100425.91
2019-04-25T21:47:36.282Z,100426.28
2019-04-25T21:50:06.125Z,100424.42
2019-04-25T21:52:33.259Z,100426.70
2019-04-25T21:55:00.166Z,100434.38
2019-04-25T21:57:27.088Z,100429.16
2019-04-25T22:00:03.108Z,100427.94
2019-04-25T22:02:23.271Z,100424.28
2019-04-25T22:04:50.680Z,100419.14
2019-04-25T22:07:17.862Z,100428.17
2019-04-25T22:09:44.952Z,100426.67
2019-04-25T22:12:13.910Z,100428.30
2019-04-25T22:14:40.576Z,100424.25
2019-04-25T22:17:07.612Z,100431.06
2019-04-25T22:19:34.646Z,100425.85
2019-04-25T22:22:02.703Z,100429.73
2019-04-25T22:24:30.617Z,100428.67
2019-04-25T22:26:59.414Z,100421.38
2019-04-25T22:29:26.745Z,100419.09
2019-04-25T22:34:52.009Z,100420.16
2019-04-25T22:37:14.271Z,100425.79
2019-04-25T22:39:41.251Z,100429.55
2019-04-25T22:42:08.030Z,100427.16
2019-04-25T22:44:35.029Z,100425.91
2019-04-25T22:47:04.258Z,100426.39
2019-04-25T22:49:31.018Z,100425.27
2019-04-25T22:51:57.669Z,100421.88
2019-04-25T22:54:25.930Z,100414.80
2019-04-25T22:56:52.630Z,100416.13
2019-04-25T22:59:19.648Z,100426.29
2019-04-25T23:01:48.394Z,100422.64
2019-04-25T23:04:17.037Z,100422.83
2019-04-25T23:06:44.214Z,100416.36
2019-04-25T23:09:12.085Z,100416.16
2019-04-25T23:11:40.282Z,100418.89
2019-04-25T23:14:07.221Z,100418.72
2019-04-25T23:16:33.881Z,100413.33
2019-04-25T23:19:00.452Z,100411.00
2019-04-25T23:21:27.103Z,100419.73
2019-04-25T23:23:54.004Z,100418.30
2019-04-25T23:26:22.649Z,100414.82
2019-04-25T23:28:51.700Z,100415.87
2019-04-25T23:31:20.210Z,100414.44
2019-04-25T23:33:47.418Z,100423.83
2019-04-25T23:36:15.392Z,100416.16
2019-04-25T23:38:42.317Z,100422.86
2019-04-25T23:41:09.389Z,100420.70
2019-04-25T23:43:36.228Z,100420.98
2019-04-25T23:46:03.022Z,100414.36
2019-04-25T23:48:30.352Z,100416.91
2019-04-25T23:50:57.157Z,100418.24
2019-04-25T23:53:23.709Z,100414.66
2019-04-25T23:55:50.574Z,100414.82
2019-04-25T23:58:18.003Z,100417.44
